sensor_id;sensor_type;location;lat;lon;timestamp;pressure;altitude;pressure_sealevel;temperature;humidity
44839;BME280;30576;42.098;24.876;2023-04-05T00:02:10;99072.56;;;6.70;65.33
44839;BME280;30576;42.098;24.876;2023-04-05T00:04:37;99073.34;;;6.81;65.09
44839;BME280;30576;42.098;24.876;2023-04-05T00:07:14;99077.53;;;6.96;64.98
44839;BME280;30576;42.098;24.876;2023-04-05T00:09:41;99082.94;;;6.79;65.05
44839;BME280;30576;42.098;24.876;2023-04-05T00:12:06;99070.88;;;6.65;65.54
44839;BME280;30576;42.098;24.876;2023-04-05T00:14:32;99077.94;;;6.53;64.84
44839;BME280;30576;42.098;24.876;2023-04-05T00:16:57;99080.41;;;6.72;65.03
44839;BME280;30576;42.098;24.876;2023-04-05T00:19:22;99084.75;;;6.74;66.37
44839;BME280;30576;42.098;24.876;2023-04-05T00:21:48;99077.72;;;6.78;65.69
44839;BME280;30576;42.098;24.876;2023-04-05T00:24:13;99082.06;;;6.80;65.31
44839;BME280;30576;42.098;24.876;2023-04-05T00:26:39;99085.72;;;6.62;65.48
44839;BME280;30576;42.098;24.876;2023-04-05T00:29:06;99083.16;;;6.58;66.18
44839;BME280;30576;42.098;24.876;2023-04-05T00:31:32;99078.75;;;6.61;65.48
44839;BME280;30576;42.098;24.876;2023-04-05T00:33:57;99078.00;;;6.45;66.03
44839;BME280;30576;42.098;24.876;2023-04-05T00:36:22;99078.91;;;6.46;66.57
44839;BME280;30576;42.098;24.876;2023-04-05T00:38:48;99084.84;;;6.63;66.36
44839;BME280;30576;42.098;24.876;2023-04-05T00:41:13;99083.09;;;6.64;66.07
44839;BME280;30576;42.098;24.876;2023-04-05T00:43:39;99071.81;;;6.56;65.65
44839;BME280;30576;42.098;24.876;2023-04-05T00:46:05;99079.78;;;6.43;66.26
44839;BME280;30576;42.098;24.876;2023-04-05T00:48:31;99084.97;;;6.50;65.72
44839;BME280;30576;42.098;24.876;2023-04-05T00:50:57;99078.00;;;6.47;65.51
44839;BME280;30576;42.098;24.876;2023-04-05T00:53:23;99079.47;;;6.80;65.54
44839;BME280;30576;42.098;24.876;2023-04-05T00:55:48;99089.00;;;6.88;65.50
44839;BME280;30576;42.098;24.876;2023-04-05T00:58:16;99077.00;;;6.62;65.21
44839;BME280;30576;42.098;24.876;2023-04-05T01:00:54;99083.25;;;6.44;65.44
44839;BME280;30576;42.098;24.876;2023-04-05T01:03:24;99077.16;;;6.42;65.80
44839;BME280;30576;42.098;24.876;2023-04-05T01:08:33;99085.88;;;6.44;65.59
44839;BME280;30576;42.098;24.876;2023-04-05T01:11:02;99071.94;;;6.42;66.06
44839;BME280;30576;42.098;24.876;2023-04-05T01:13:28;99090.22;;;6.48;65.21
44839;BME280;30576;42.098;24.876;2023-04-05T01:15:53;99089.41;;;6.41;64.48
44839;BME280;30576;42.098;24.876;2023-04-05T01:18:19;99083.34;;;6.33;65.11
44839;BME280;30576;42.098;24.876;2023-04-05T01:20:48;99089.47;;;6.32;65.54
44839;BME280;30576;42.098;24.876;2023-04-05T01:31:05;99098.22;;;6.28;65.77
44839;BME280;30576;42.098;24.876;2023-04-05T01:33:34;99090.47;;;6.14;65.92
44839;BME280;30576;42.098;24.876;2023-04-05T01:36:05;99081.69;;;6.24;65.28
44839;BME280;30576;42.098;24.876;2023-04-05T01:38:33;99081.78;;;6.11;66.29
44839;BME280;30576;42.098;24.876;2023-04-05T01:40:59;99091.28;;;6.24;66.49
44839;BME280;30576;42.098;24.876;2023-04-05T01:43:24;99079.09;;;6.18;65.70
44839;BME280;30576;42.098;24.876;2023-04-05T01:45:50;99088.72;;;6.13;65.80
44839;BME280;30576;42.098;24.876;2023-04-05T01:48:15;99097.44;;;6.20;66.93
44839;BME280;30576;42.098;24.876;2023-04-05T01:50:40;99093.06;;;6.20;66.06
44839;BME280;30576;42.098;24.876;2023-04-05T01:53:06;99099.09;;;6.30;66.14
44839;BME280;30576;42.098;24.876;2023-04-05T01:55:31;99088.69;;;6.19;66.33
44839;BME280;30576;42.098;24.876;2023-04-05T01:57:57;99080.06;;;6.03;66.35
44839;BME280;30576;42.098;24.876;2023-04-05T02:00:22;99094.84;;;6.15;66.53
44839;BME280;30576;42.098;24.876;2023-04-05T02:02:47;99095.69;;;6.19;67.16
44839;BME280;30576;42.098;24.876;2023-04-05T02:05:13;99087.00;;;6.12;66.19
44839;BME280;30576;42.098;24.876;2023-04-05T02:07:38;99102.78;;;6.00;66.34
44839;BME280;30576;42.098;24.876;2023-04-05T02:10:04;99093.13;;;6.08;66.71
44839;BME280;30576;42.098;24.876;2023-04-05T02:12:29;99106.19;;;6.11;67.11
44839;BME280;30576;42.098;24.876;2023-04-05T02:14:55;99101.84;;;6.08;66.73
44839;BME280;30576;42.098;24.876;2023-04-05T02:17:20;99097.56;;;5.98;66.73
44839;BME280;30576;42.098;24.876;2023-04-05T02:19:46;99108.88;;;5.96;66.10
44839;BME280;30576;42.098;24.876;2023-04-05T02:22:11;99108.88;;;6.03;66.98
44839;BME280;30576;42.098;24.876;2023-04-05T02:24:37;99098.38;;;6.08;65.94
44839;BME280;30576;42.098;24.876;2023-04-05T02:27:02;99106.28;;;6.00;66.26
44839;BME280;30576;42.098;24.876;2023-04-05T02:29:28;99118.50;;;5.95;66.26
44839;BME280;30576;42.098;24.876;2023-04-05T02:31:53;99123.75;;;5.92;66.66
44839;BME280;30576;42.098;24.876;2023-04-05T02:34:18;99123.69;;;6.11;66.60
44839;BME280;30576;42.098;24.876;2023-04-05T02:36:44;99135.03;;;6.06;66.07
44839;BME280;30576;42.098;24.876;2023-04-05T02:39:09;99128.09;;;5.99;65.93
44839;BME280;30576;42.098;24.876;2023-04-05T02:41:35;99125.47;;;5.95;66.06
44839;BME280;30576;42.098;24.876;2023-04-05T02:44:00;99127.22;;;5.91;66.74
44839;BME280;30576;42.098;24.876;2023-04-05T02:46:26;99129.84;;;5.91;66.86
44839;BME280;30576;42.098;24.876;2023-04-05T02:48:51;99128.94;;;6.07;67.16
44839;BME280;30576;42.098;24.876;2023-04-05T02:51:16;99141.19;;;5.88;67.03
44839;BME280;30576;42.098;24.876;2023-04-05T02:53:42;99143.81;;;5.88;67.07
44839;BME280;30576;42.098;24.876;2023-04-05T02:56:09;99142.09;;;5.89;67.16
44839;BME280;30576;42.098;24.876;2023-04-05T02:58:37;99143.81;;;5.85;66.31
44839;BME280;30576;42.098;24.876;2023-04-05T03:01:03;99148.25;;;5.77;67.29
44839;BME280;30576;42.098;24.876;2023-04-05T03:03:31;99145.59;;;5.85;65.47
44839;BME280;30576;42.098;24.876;2023-04-05T03:05:59;99142.19;;;5.67;66.17
44839;BME280;30576;42.098;24.876;2023-04-05T03:08:25;99149.16;;;5.64;66.58
44839;BME280;30576;42.098;24.876;2023-04-05T03:10:52;99153.50;;;5.69;66.72
44839;BME280;30576;42.098;24.876;2023-04-05T03:13:18;99144.78;;;5.72;66.38
44839;BME280;30576;42.098;24.876;2023-04-05T03:15:43;99156.06;;;5.80;66.03
44839;BME280;30576;42.098;24.876;2023-04-05T03:18:09;99149.97;;;5.80;65.93
44839;BME280;30576;42.098;24.876;2023-04-05T03:20:35;99160.41;;;5.89;65.30
44839;BME280;30576;42.098;24.876;2023-04-05T03:23:04;99159.53;;;5.82;65.29
44839;BME280;30576;42.098;24.876;2023-04-05T03:25:30;99162.19;;;5.73;65.89
44839;BME280;30576;42.098;24.876;2023-04-05T03:27:55;99164.75;;;5.87;65.80
44839;BME280;30576;42.098;24.876;2023-04-05T03:30:22;99159.63;;;5.65;65.56
44839;BME280;30576;42.098;24.876;2023-04-05T03:32:47;99164.75;;;5.90;65.52
44839;BME280;30576;42.098;24.876;2023-04-05T03:35:12;99167.47;;;5.62;65.24
44839;BME280;30576;42.098;24.876;2023-04-05T03:37:40;99161.41;;;5.54;66.06
44839;BME280;30576;42.098;24.876;2023-04-05T03:40:06;99159.66;;;5.47;65.86
44839;BME280;30576;42.098;24.876;2023-04-05T03:42:34;99158.78;;;5.60;65.94
44839;BME280;30576;42.098;24.876;2023-04-05T03:44:59;99177.94;;;5.67;65.72
44839;BME280;30576;42.098;24.876;2023-04-05T03:47:25;99169.25;;;5.51;65.95
44839;BME280;30576;42.098;24.876;2023-04-05T03:49:50;99170.13;;;5.53;65.76
44839;BME280;30576;42.098;24.876;2023-04-05T03:52:16;99171.03;;;5.50;65.04
44839;BME280;30576;42.098;24.876;2023-04-05T03:54:41;99163.16;;;5.55;65.31
44839;BME280;30576;42.098;24.876;2023-04-05T03:57:06;99161.34;;;5.71;64.95
44839;BME280;30576;42.098;24.876;2023-04-05T03:59:32;99171.00;;;5.61;65.59
44839;BME280;30576;42.098;24.876;2023-04-05T04:01:57;99166.56;;;5.74;65.14
44839;BME280;30576;42.098;24.876;2023-04-05T04:04:22;99178.84;;;5.60;65.03
44839;BME280;30576;42.098;24.876;2023-04-05T04:06:47;99178.81;;;5.70;65.84
44839;BME280;30576;42.098;24.876;2023-04-05T04:09:13;99177.09;;;5.62;65.04
44839;BME280;30576;42.098;24.876;2023-04-05T04:11:38;99180.50;;;5.81;64.93
44839;BME280;30576;42.098;24.876;2023-04-05T04:14:03;99188.34;;;5.82;64.84
44839;BME280;30576;42.098;24.876;2023-04-05T04:16:29;99191.00;;;5.71;64.55
44839;BME280;30576;42.098;24.876;2023-04-05T04:18:55;99201.47;;;5.68;65.01
44839;BME280;30576;42.098;24.876;2023-04-05T04:21:20;99204.00;;;5.90;65.19
44839;BME280;30576;42.098;24.876;2023-04-05T04:23:49;99200.53;;;5.91;65.00
44839;BME280;30576;42.098;24.876;2023-04-05T04:26:15;99206.63;;;5.96;64.62
44839;BME280;30576;42.098;24.876;2023-04-05T04:28:41;99206.63;;;5.96;64.64
44839;BME280;30576;42.098;24.876;2023-04-05T04:31:10;99215.31;;;6.14;64.86
44839;BME280;30576;42.098;24.876;2023-04-05T04:33:37;99216.22;;;6.05;65.69
44839;BME280;30576;42.098;24.876;2023-04-05T04:36:07;99206.63;;;5.95;65.05
44839;BME280;30576;42.098;24.876;2023-04-05T04:38:37;99215.28;;;6.18;65.54
44839;BME280;30576;42.098;24.876;2023-04-05T04:41:06;99214.34;;;6.27;65.27
44839;BME280;30576;42.098;24.876;2023-04-05T04:43:32;99222.25;;;6.22;65.16
44839;BME280;30576;42.098;24.876;2023-04-05T04:46:01;99225.72;;;6.29;64.84
44839;BME280;30576;42.098;24.876;2023-04-05T04:48:31;99228.31;;;6.37;64.71
44839;BME280;30576;42.098;24.876;2023-04-05T04:50:57;99233.53;;;6.40;64.63
44839;BME280;30576;42.098;24.876;2023-04-05T04:53:22;99242.16;;;6.56;65.25
44839;BME280;30576;42.098;24.876;2023-04-05T04:55:48;99236.16;;;6.35;64.78
44839;BME280;30576;42.098;24.876;2023-04-05T04:58:14;99247.53;;;6.33;65.37
44839;BME280;30576;42.098;24.876;2023-04-05T05:00:40;99238.81;;;6.27;66.19
44839;BME280;30576;42.098;24.876;2023-04-05T05:03:11;99242.28;;;6.34;65.59
44839;BME280;30576;42.098;24.876;2023-04-05T05:05:43;99244.06;;;6.26;66.46
44839;BME280;30576;42.098;24.876;2023-04-05T05:08:08;99244.81;;;6.50;65.46
44839;BME280;30576;42.098;24.876;2023-04-05T05:10:34;99248.44;;;6.21;66.09
44839;BME280;30576;42.098;24.876;2023-04-05T05:12:59;99255.38;;;6.33;66.17
44839;BME280;30576;42.098;24.876;2023-04-05T05:15:24;99254.44;;;6.51;65.28
44839;BME280;30576;42.098;24.876;2023-04-05T05:17:51;99257.16;;;6.31;65.78
44839;BME280;30576;42.098;24.876;2023-04-05T05:20:17;99261.50;;;6.32;65.17
44839;BME280;30576;42.098;24.876;2023-04-05T05:22:43;99253.53;;;6.52;65.48
44839;BME280;30576;42.098;24.876;2023-04-05T05:25:10;99253.56;;;6.42;65.18
44839;BME280;30576;42.098;24.876;2023-04-05T05:27:36;99262.25;;;6.58;65.09
44839;BME280;30576;42.098;24.876;2023-04-05T05:30:01;99251.72;;;6.63;65.21
44839;BME280;30576;42.098;24.876;2023-04-05T05:32:27;99258.59;;;6.81;64.70
44839;BME280;30576;42.098;24.876;2023-04-05T05:34:52;99257.75;;;6.76;64.42
44839;BME280;30576;42.098;24.876;2023-04-05T05:37:18;99253.38;;;6.78;64.55
44839;BME280;30576;42.098;24.876;2023-04-05T05:39:43;99254.84;;;7.14;63.52
44839;BME280;30576;42.098;24.876;2023-04-05T05:42:09;99260.94;;;7.20;63.65
44839;BME280;30576;42.098;24.876;2023-04-05T05:44:35;99263.41;;;7.35;62.68
44839;BME280;30576;42.098;24.876;2023-04-05T05:47:00;99263.59;;;7.13;62.95
44839;BME280;30576;42.098;24.876;2023-04-05T05:49:26;99264.63;;;6.97;62.39
44839;BME280;30576;42.098;24.876;2023-04-05T05:51:52;99260.19;;;7.04;63.22
44839;BME280;30576;42.098;24.876;2023-04-05T05:54:17;99268.13;;;6.94;62.41
44839;BME280;30576;42.098;24.876;2023-04-05T05:56:43;99265.53;;;6.90;62.57
44839;BME280;30576;42.098;24.876;2023-04-05T05:59:08;99260.19;;;7.04;63.12
44839;BME280;30576;42.098;24.876;2023-04-05T06:01:34;99266.31;;;6.99;63.39
44839;BME280;30576;42.098;24.876;2023-04-05T06:04:03;99261.00;;;7.10;63.28
44839;BME280;30576;42.098;24.876;2023-04-05T06:06:28;99267.09;;;7.19;63.94
44839;BME280;30576;42.098;24.876;2023-04-05T06:08:54;99257.56;;;7.04;62.13
44839;BME280;30576;42.098;24.876;2023-04-05T06:11:19;99260.91;;;7.23;62.61
44839;BME280;30576;42.098;24.876;2023-04-05T06:13:49;99263.59;;;7.15;62.85
44839;BME280;30576;42.098;24.876;2023-04-05T06:16:16;99261.94;;;7.03;61.60
44839;BME280;30576;42.098;24.876;2023-04-05T06:18:42;99262.78;;;7.08;62.49
44839;BME280;30576;42.098;24.876;2023-04-05T06:21:07;99260.97;;;7.13;63.41
44839;BME280;30576;42.098;24.876;2023-04-05T06:23:33;99270.16;;;7.65;63.51
44839;BME280;30576;42.098;24.876;2023-04-05T06:25:58;99274.66;;;7.54;62.25
44839;BME280;30576;42.098;24.876;2023-04-05T06:28:23;99274.00;;;7.26;63.23
44839;BME280;30576;42.098;24.876;2023-04-05T06:30:49;99269.47;;;7.46;63.21
44839;BME280;30576;42.098;24.876;2023-04-05T06:33:14;99276.13;;;7.80;60.58
44839;BME280;30576;42.098;24.876;2023-04-05T06:35:39;99271.88;;;7.68;61.06
44839;BME280;30576;42.098;24.876;2023-04-05T06:38:05;99273.81;;;7.46;60.69
44839;BME280;30576;42.098;24.876;2023-04-05T06:40:30;99272.81;;;7.61;61.49
44839;BME280;30576;42.098;24.876;2023-04-05T06:42:55;99270.53;;;8.11;62.15
44839;BME280;30576;42.098;24.876;2023-04-05T06:45:21;99276.91;;;7.91;60.22
44839;BME280;30576;42.098;24.876;2023-04-05T06:47:46;99279.22;;;8.19;60.35
44839;BME280;30576;42.098;24.876;2023-04-05T06:50:11;99289.69;;;8.22;58.13
44839;BME280;30576;42.098;24.876;2023-04-05T06:52:37;99276.69;;;8.10;60.20
44839;BME280;30576;42.098;24.876;2023-04-05T06:55:03;99290.78;;;8.02;58.44
44839;BME280;30576;42.098;24.876;2023-04-05T06:57:29;99287.69;;;8.42;58.43
44839;BME280;30576;42.098;24.876;2023-04-05T06:59:54;99293.78;;;8.43;56.98
44839;BME280;30576;42.098;24.876;2023-04-05T07:02:20;99297.47;;;8.31;59.05
44839;BME280;30576;42.098;24.876;2023-04-05T07:04:46;99291.88;;;8.59;59.38
44839;BME280;30576;42.098;24.876;2023-04-05T07:07:12;99301.19;;;8.83;59.11
44839;BME280;30576;42.098;24.876;2023-04-05T07:09:37;99308.88;;;8.97;54.93
44839;BME280;30576;42.098;24.876;2023-04-05T07:12:04;99313.03;;;8.50;56.67
44839;BME280;30576;42.098;24.876;2023-04-05T07:14:30;99318.41;;;8.39;56.95
44839;BME280;30576;42.098;24.876;2023-04-05T07:16:55;99316.00;;;8.17;58.23
44839;BME280;30576;42.098;24.876;2023-04-05T07:19:21;99330.94;;;8.12;58.11
44839;BME280;30576;42.098;24.876;2023-04-05T07:21:47;99321.81;;;8.49;58.57
44839;BME280;30576;42.098;24.876;2023-04-05T07:24:12;99318.81;;;8.76;59.48
44839;BME280;30576;42.098;24.876;2023-04-05T07:26:38;99312.84;;;8.64;57.56
44839;BME280;30576;42.098;24.876;2023-04-05T07:29:03;99320.66;;;8.71;56.98
44839;BME280;30576;42.098;24.876;2023-04-05T07:31:29;99326.56;;;8.14;59.05
44839;BME280;30576;42.098;24.876;2023-04-05T07:33:55;99323.69;;;8.36;58.46
44839;BME280;30576;42.098;24.876;2023-04-05T07:36:22;99331.72;;;8.23;58.37
44839;BME280;30576;42.098;24.876;2023-04-05T07:38:47;99325.72;;;8.07;58.03
44839;BME280;30576;42.098;24.876;2023-04-05T07:41:13;99326.50;;;8.19;57.20
44839;BME280;30576;42.098;24.876;2023-04-05T07:43:40;99336.28;;;8.03;58.17
44839;BME280;30576;42.098;24.876;2023-04-05T07:46:06;99325.00;;;7.96;58.88
44839;BME280;30576;42.098;24.876;2023-04-05T07:48:31;99324.25;;;7.83;57.90
44839;BME280;30576;42.098;24.876;2023-04-05T07:51:01;99330.13;;;8.07;58.35
44839;BME280;30576;42.098;24.876;2023-04-05T07:53:27;99342.34;;;8.11;57.13
44839;BME280;30576;42.098;24.876;2023-04-05T07:55:52;99329.75;;;8.44;57.49
44839;BME280;30576;42.098;24.876;2023-04-05T07:58:17;99340.25;;;8.41;57.60
44839;BME280;30576;42.098;24.876;2023-04-05T08:00:43;99342.94;;;8.36;59.10
44839;BME280;30576;42.098;24.876;2023-04-05T08:03:08;99347.50;;;8.22;56.09
44839;BME280;30576;42.098;24.876;2023-04-05T08:05:33;99350.00;;;8.33;55.81
44839;BME280;30576;42.098;24.876;2023-04-05T08:07:58;99344.91;;;8.19;56.33
44839;BME280;30576;42.098;24.876;2023-04-05T08:10:24;99349.72;;;8.59;56.38
44839;BME280;30576;42.098;24.876;2023-04-05T08:12:50;99352.44;;;8.53;56.26
44839;BME280;30576;42.098;24.876;2023-04-05T08:15:15;99356.91;;;8.40;56.18
44839;BME280;30576;42.098;24.876;2023-04-05T08:17:40;99361.31;;;8.38;55.76
44839;BME280;30576;42.098;24.876;2023-04-05T08:20:06;99351.03;;;8.91;56.52
44839;BME280;30576;42.098;24.876;2023-04-05T08:22:31;99348.56;;;8.80;54.83
44839;BME280;30576;42.098;24.876;2023-04-05T08:24:57;99359.25;;;8.66;53.92
44839;BME280;30576;42.098;24.876;2023-04-05T08:27:22;99365.28;;;8.76;54.31
44839;BME280;30576;42.098;24.876;2023-04-05T08:29:47;99358.63;;;8.47;54.78
44839;BME280;30576;42.098;24.876;2023-04-05T08:32:13;99354.88;;;8.68;56.86
44839;BME280;30576;42.098;24.876;2023-04-05T08:34:38;99353.19;;;8.63;55.81
44839;BME280;30576;42.098;24.876;2023-04-05T08:37:03;99364.88;;;9.07;53.43
44839;BME280;30576;42.098;24.876;2023-04-05T08:39:29;99365.06;;;8.93;54.00
44839;BME280;30576;42.098;24.876;2023-04-05T08:42:09;99365.97;;;8.90;54.43
44839;BME280;30576;42.098;24.876;2023-04-05T08:44:35;99366.00;;;8.89;54.29
44839;BME280;30576;42.098;24.876;2023-04-05T08:47:01;99368.41;;;9.04;53.57
44839;BME280;30576;42.098;24.876;2023-04-05T08:49:27;99375.41;;;9.07;53.77
44839;BME280;30576;42.098;24.876;2023-04-05T08:51:52;99370.72;;;9.27;54.48
44839;BME280;30576;42.098;24.876;2023-04-05T08:54:17;99378.75;;;9.17;52.90
44839;BME280;30576;42.098;24.876;2023-04-05T08:56:43;99378.75;;;9.18;53.46
44839;BME280;30576;42.098;24.876;2023-04-05T08:59:11;99369.94;;;9.21;54.63
44839;BME280;30576;42.098;24.876;2023-04-05T09:01:38;99375.19;;;9.22;55.35
44839;BME280;30576;42.098;24.876;2023-04-05T09:04:09;99388.84;;;8.85;53.43
44839;BME280;30576;42.098;24.876;2023-04-05T09:06:36;99386.56;;;8.57;52.16
44839;BME280;30576;42.098;24.876;2023-04-05T09:09:04;99383.06;;;8.55;53.40
44839;BME280;30576;42.098;24.876;2023-04-05T09:11:29;99379.50;;;8.61;53.38
44839;BME280;30576;42.098;24.876;2023-04-05T09:13:55;99387.47;;;8.52;53.38
44839;BME280;30576;42.098;24.876;2023-04-05T09:16:21;99383.78;;;8.68;53.86
44839;BME280;30576;42.098;24.876;2023-04-05T09:18:46;99390.94;;;8.55;53.02
44839;BME280;30576;42.098;24.876;2023-04-05T09:21:13;99382.00;;;8.70;53.18
44839;BME280;30576;42.098;24.876;2023-04-05T09:23:40;99382.84;;;8.72;53.41
44839;BME280;30576;42.098;24.876;2023-04-05T09:26:18;99395.00;;;8.83;53.99
44839;BME280;30576;42.098;24.876;2023-04-05T09:28:43;99386.84;;;9.03;53.94
44839;BME280;30576;42.098;24.876;2023-04-05T09:31:09;99385.69;;;9.24;54.47
44839;BME280;30576;42.098;24.876;2023-04-05T09:33:53;99384.50;;;8.81;52.35
44839;BME280;30576;42.098;24.876;2023-04-05T09:36:18;99378.31;;;8.85;52.74
44839;BME280;30576;42.098;24.876;2023-04-05T09:38:44;99386.28;;;8.79;52.21
44839;BME280;30576;42.098;24.876;2023-04-05T09:41:10;99390.97;;;8.54;51.52
44839;BME280;30576;42.098;24.876;2023-04-05T09:43:38;99377.75;;;8.58;52.47
44839;BME280;30576;42.098;24.876;2023-04-05T09:46:04;99390.91;;;8.57;51.70
44839;BME280;30576;42.098;24.876;2023-04-05T09:48:48;99382.13;;;8.61;53.36
44839;BME280;30576;42.098;24.876;2023-04-05T09:51:14;99382.81;;;8.75;53.42
44839;BME280;30576;42.098;24.876;2023-04-05T09:56:25;99390.03;;;8.59;52.98
44839;BME280;30576;42.098;24.876;2023-04-05T09:58:50;99381.88;;;8.80;52.35
44839;BME280;30576;42.098;24.876;2023-04-05T10:01:16;99383.75;;;8.73;52.87
44839;BME280;30576;42.098;24.876;2023-04-05T10:03:48;99385.28;;;8.88;53.04
44839;BME280;30576;42.098;24.876;2023-04-05T10:06:16;99394.19;;;8.77;53.20
44839;BME280;30576;42.098;24.876;2023-04-05T10:08:42;99385.38;;;8.82;54.59
44839;BME280;30576;42.098;24.876;2023-04-05T10:11:08;99396.75;;;8.85;54.87
44839;BME280;30576;42.098;24.876;2023-04-05T10:13:35;99395.81;;;8.86;51.97
44839;BME280;30576;42.098;24.876;2023-04-05T10:16:01;99397.63;;;8.84;53.57
44839;BME280;30576;42.098;24.876;2023-04-05T10:18:31;99395.09;;;8.75;53.41
44839;BME280;30576;42.098;24.876;2023-04-05T10:21:03;99401.31;;;8.68;53.35
44839;BME280;30576;42.098;24.876;2023-04-05T10:23:30;99388.28;;;8.58;55.11
44839;BME280;30576;42.098;24.876;2023-04-05T10:28:42;99390.81;;;8.66;55.13
44839;BME280;30576;42.098;24.876;2023-04-05T10:33:42;99407.53;;;8.62;53.13
44839;BME280;30576;42.098;24.876;2023-04-05T10:36:21;99399.84;;;8.44;54.12
44839;BME280;30576;42.098;24.876;2023-04-05T10:39:06;99404.13;;;8.52;55.09
44839;BME280;30576;42.098;24.876;2023-04-05T10:41:41;99399.63;;;8.64;54.99
44839;BME280;30576;42.098;24.876;2023-04-05T10:44:10;99408.34;;;8.67;54.79
44839;BME280;30576;42.098;24.876;2023-04-05T10:46:36;99398.69;;;8.66;55.61
44839;BME280;30576;42.098;24.876;2023-04-05T10:51:48;99413.47;;;8.80;55.94
44839;BME280;30576;42.098;24.876;2023-04-05T10:54:14;99408.13;;;8.86;54.91
44839;BME280;30576;42.098;24.876;2023-04-05T10:56:41;99412.75;;;8.65;55.18
44839;BME280;30576;42.098;24.876;2023-04-05T10:59:07;99408.81;;;8.99;56.59
44839;BME280;30576;42.098;24.876;2023-04-05T11:01:33;99416.78;;;8.92;55.56
44839;BME280;30576;42.098;24.876;2023-04-05T11:04:12;99416.38;;;8.55;56.15
44839;BME280;30576;42.098;24.876;2023-04-05T11:06:38;99412.84;;;8.57;57.30
44839;BME280;30576;42.098;24.876;2023-04-05T11:09:10;99426.78;;;8.66;57.69
44839;BME280;30576;42.098;24.876;2023-04-05T11:11:40;99411.94;;;8.58;57.77
44839;BME280;30576;42.098;24.876;2023-04-05T11:14:16;99415.28;;;8.73;60.38
44839;BME280;30576;42.098;24.876;2023-04-05T11:16:44;99418.00;;;8.67;61.84
44839;BME280;30576;42.098;24.876;2023-04-05T11:19:10;99421.34;;;8.80;58.86
44839;BME280;30576;42.098;24.876;2023-04-05T11:21:35;99419.38;;;8.95;56.96
44839;BME280;30576;42.098;24.876;2023-04-05T11:26:31;99420.41;;;8.85;58.85
44839;BME280;30576;42.098;24.876;2023-04-05T11:28:56;99420.75;;;8.56;61.19
44839;BME280;30576;42.098;24.876;2023-04-05T11:31:22;99423.50;;;8.44;61.02
44839;BME280;30576;42.098;24.876;2023-04-05T11:42:02;99421.28;;;8.86;57.58
44839;BME280;30576;42.098;24.876;2023-04-05T11:44:28;99429.28;;;8.76;56.81
44839;BME280;30576;42.098;24.876;2023-04-05T11:46:55;99426.59;;;8.81;55.52
44839;BME280;30576;42.098;24.876;2023-04-05T11:49:22;99428.25;;;8.88;57.34
44839;BME280;30576;42.098;24.876;2023-04-05T11:51:49;99427.31;;;8.92;56.05
44839;BME280;30576;42.098;24.876;2023-04-05T11:54:30;99425.56;;;8.93;54.79
44839;BME280;30576;42.098;24.876;2023-04-05T11:56:56;99421.13;;;8.98;57.43
44839;BME280;30576;42.098;24.876;2023-04-05T11:59:33;99421.94;;;9.02;56.18
44839;BME280;30576;42.098;24.876;2023-04-05T12:02:00;99423.53;;;9.15;53.73
44839;BME280;30576;42.098;24.876;2023-04-05T12:04:26;99424.91;;;8.74;55.68
44839;BME280;30576;42.098;24.876;2023-04-05T12:10:00;99414.72;;;9.19;56.48
44839;BME280;30576;42.098;24.876;2023-04-05T12:12:26;99419.06;;;9.20;57.06
44839;BME280;30576;42.098;24.876;2023-04-05T12:14:57;99414.53;;;9.31;56.50
44839;BME280;30576;42.098;24.876;2023-04-05T12:17:43;99415.16;;;9.47;56.03
44839;BME280;30576;42.098;24.876;2023-04-05T12:20:08;99411.81;;;9.38;54.20
44839;BME280;30576;42.098;24.876;2023-04-05T12:22:35;99409.88;;;9.49;54.79
44839;BME280;30576;42.098;24.876;2023-04-05T12:25:01;99415.81;;;9.62;54.95
44839;BME280;30576;42.098;24.876;2023-04-05T12:27:26;99408.41;;;9.29;53.72
44839;BME280;30576;42.098;24.876;2023-04-05T12:32:36;99411.25;;;9.12;53.93
44839;BME280;30576;42.098;24.876;2023-04-05T12:35:05;99420.88;;;9.17;53.58
44839;BME280;30576;42.098;24.876;2023-04-05T12:37:30;99406.91;;;9.13;56.30
44839;BME280;30576;42.098;24.876;2023-04-05T12:40:00;99410.00;;;9.41;55.15
44839;BME280;30576;42.098;24.876;2023-04-05T12:42:29;99415.78;;;9.63;54.80
44839;BME280;30576;42.098;24.876;2023-04-05T12:45:02;99415.28;;;9.40;54.08
44839;BME280;30576;42.098;24.876;2023-04-05T12:47:28;99410.00;;;9.41;55.08
44839;BME280;30576;42.098;24.876;2023-04-05T12:49:54;99416.28;;;9.29;55.44
44839;BME280;30576;42.098;24.876;2023-04-05T12:52:19;99428.16;;;8.96;55.33
44839;BME280;30576;42.098;24.876;2023-04-05T12:54:53;99427.44;;;8.82;56.53
44839;BME280;30576;42.098;24.876;2023-04-05T12:57:26;99425.81;;;8.74;56.76
44839;BME280;30576;42.098;24.876;2023-04-05T12:59:52;99431.91;;;8.76;57.67
44839;BME280;30576;42.098;24.876;2023-04-05T13:02:18;99430.72;;;9.02;57.73
44839;BME280;30576;42.098;24.876;2023-04-05T13:04:43;99422.53;;;9.25;57.39
44839;BME280;30576;42.098;24.876;2023-04-05T13:07:08;99419.25;;;9.05;56.03
44839;BME280;30576;42.098;24.876;2023-04-05T13:09:33;99423.66;;;9.06;55.68
44839;BME280;30576;42.098;24.876;2023-04-05T13:12:00;99431.69;;;8.93;55.85
44839;BME280;30576;42.098;24.876;2023-04-05T13:14:26;99429.84;;;9.00;54.32
44839;BME280;30576;42.098;24.876;2023-04-05T13:16:51;99427.19;;;9.02;56.15
44839;BME280;30576;42.098;24.876;2023-04-05T13:19:17;99438.22;;;8.58;56.38
44839;BME280;30576;42.098;24.876;2023-04-05T13:21:42;99442.91;;;8.25;58.07
44839;BME280;30576;42.098;24.876;2023-04-05T13:24:07;99438.44;;;8.35;58.13
44839;BME280;30576;42.098;24.876;2023-04-05T13:26:33;99430.56;;;8.34;56.72
44839;BME280;30576;42.098;24.876;2023-04-05T13:28:58;99432.06;;;8.63;57.01
44839;BME280;30576;42.098;24.876;2023-04-05T13:31:23;99434.91;;;8.38;57.42
44839;BME280;30576;42.098;24.876;2023-04-05T13:33:49;99426.66;;;8.76;57.83
44839;BME280;30576;42.098;24.876;2023-04-05T13:36:14;99432.78;;;8.75;56.22